Time;durP1;ratioP1;P1;durP2;ratioP2;P2;SDS_P1;SDS_P2;PMS_P1;PMS_P2;Temp;Humidity;BMP_temperature;BMP_pressure;BME280_temperature;BME280_humidity;BME280_pressure;Samples;Min_cycle;Max_cycle;Signal;HPM_P1;HPM_P2
2022/01/31 00:00:52;;;;;;;0.20;0.20;;;2.80;99.90;;;;;;5012009;28;20037;-67
2022/01/31 00:03:17;;;;;;;0.10;0.10;;;2.90;99.90;;;;;;5012359;28;20088;-67
2022/01/31 00:05:43;;;;;;;0.10;0.10;;;2.90;99.90;;;;;;5012472;28;20076;-68
2022/01/31 00:08:09;;;;;;;0.10;0.10;;;2.90;99.90;;;;;;5011936;28;20038;-67
2022/01/31 00:10:35;;;;;;;0.45;0.45;;;3.00;99.90;;;;;;5011970;28;20026;-67
2022/01/31 00:13:07;;;;;;;0.10;0.10;;;2.90;99.90;;;;;;5027345;28;20034;-67
2022/01/31 00:15:38;;;;;;;0.10;0.10;;;3.00;99.90;;;;;;5012316;28;20044;-67
2022/01/31 00:18:05;;;;;;;0.65;0.65;;;3.00;99.90;;;;;;5010849;28;20467;-67
2022/01/31 00:20:31;;;;;;;0.30;0.30;;;2.90;99.90;;;;;;5027128;28;20053;-67
2022/01/31 00:22:57;;;;;;;0.10;0.10;;;2.90;99.90;;;;;;5011969;28;20042;-67
2022/01/31 00:25:22;;;;;;;0.08;0.08;;;2.80;99.90;;;;;;5011871;28;20438;-67
2022/01/31 00:27:48;;;;;;;3.20;2.65;;;2.70;99.90;;;;;;5011928;28;20022;-67
2022/01/31 00:30:15;;;;;;;0.20;0.20;;;2.80;99.90;;;;;;5011626;28;20037;-67
2022/01/31 00:32:41;;;;;;;0.30;0.30;;;2.90;99.90;;;;;;5026758;28;20072;-67
2022/01/31 00:35:10;;;;;;;0.05;0.05;;;3.00;99.90;;;;;;5011798;28;20026;-67
2022/01/31 00:37:36;;;;;;;0.10;0.10;;;3.00;99.90;;;;;;5012082;28;20125;-67
2022/01/31 00:40:05;;;;;;;1.17;1.15;;;2.90;99.90;;;;;;5011872;28;20053;-66
2022/01/31 00:42:31;;;;;;;0.10;0.10;;;3.00;99.90;;;;;;5026969;28;20116;-66
2022/01/31 00:45:09;;;;;;;0.10;0.10;;;2.90;99.90;;;;;;5011697;28;20068;-67
2022/01/31 00:47:37;;;;;;;0.13;0.13;;;2.80;99.90;;;;;;5010592;28;20061;-67
2022/01/31 00:50:09;;;;;;;0.20;0.20;;;2.50;99.90;;;;;;5010664;28;20045;-67
2022/01/31 00:52:37;;;;;;;0.52;0.52;;;2.30;99.90;;;;;;5011843;28;20044;-67
2022/01/31 00:55:05;;;;;;;0.10;0.10;;;2.20;99.90;;;;;;5026723;28;20034;-67
2022/01/31 00:57:31;;;;;;;1.65;1.13;;;2.20;99.90;;;;;;5011458;28;20037;-67
2022/01/31 00:59:57;;;;;;;0.10;0.10;;;2.20;99.90;;;;;;5026974;28;20447;-67
2022/01/31 01:02:24;;;;;;;0.17;0.17;;;2.30;99.90;;;;;;5026604;28;20445;-67
2022/01/31 01:04:50;;;;;;;0.68;0.68;;;2.30;99.90;;;;;;5026595;28;20494;-67
2022/01/31 01:07:19;;;;;;;0.10;0.10;;;2.30;99.90;;;;;;5011432;28;20038;-67
2022/01/31 01:09:46;;;;;;;0.17;0.17;;;2.40;99.90;;;;;;5011752;28;20482;-67
2022/01/31 01:12:14;;;;;;;2.65;1.35;;;2.50;99.90;;;;;;5026531;28;20491;-67
2022/01/31 01:14:42;;;;;;;0.13;0.13;;;2.50;99.90;;;;;;5011548;28;20030;-67
2022/01/31 01:17:08;;;;;;;0.20;0.20;;;2.50;99.90;;;;;;5026558;28;20046;-67
2022/01/31 01:19:36;;;;;;;0.10;0.10;;;2.50;99.90;;;;;;5011703;28;20030;-67
2022/01/31 01:22:02;;;;;;;0.93;0.93;;;2.50;99.90;;;;;;5011692;28;20482;-67
2022/01/31 01:24:28;;;;;;;4.75;1.02;;;2.50;99.90;;;;;;5011556;28;20034;-68
2022/01/31 01:26:54;;;;;;;0.10;0.10;;;2.50;99.90;;;;;;5011608;28;20049;-68
2022/01/31 01:29:20;;;;;;;0.10;0.10;;;2.50;99.90;;;;;;5011252;28;20049;-68
2022/01/31 01:31:48;;;;;;;0.10;0.10;;;2.40;99.90;;;;;;5010201;28;20042;-68
2022/01/31 01:34:15;;;;;;;0.10;0.10;;;2.30;99.90;;;;;;5011390;28;20034;-67
2022/01/31 01:36:43;;;;;;;0.30;0.30;;;2.20;99.90;;;;;;5013001;28;20108;-67
2022/01/31 01:39:10;;;;;;;0.10;0.10;;;2.20;99.90;;;;;;5015052;28;20034;-67
2022/01/31 01:41:35;;;;;;;0.40;0.40;;;2.20;99.90;;;;;;5030054;28;20097;-67
2022/01/31 01:44:01;;;;;;;0.10;0.10;;;2.20;99.90;;;;;;5015022;28;20034;-68
2022/01/31 01:46:27;;;;;;;0.63;0.63;;;2.20;99.90;;;;;;5014821;28;20054;-67
2022/01/31 01:48:53;;;;;;;0.10;0.10;;;2.20;99.90;;;;;;5014972;28;20057;-67
2022/01/31 01:51:19;;;;;;;0.85;0.70;;;2.20;99.90;;;;;;5014347;28;20034;-67
2022/01/31 01:53:45;;;;;;;0.10;0.10;;;2.20;99.90;;;;;;5030092;28;20034;-67
2022/01/31 01:56:10;;;;;;;0.13;0.13;;;2.20;99.90;;;;;;5029985;28;20471;-66
2022/01/31 01:58:41;;;;;;;6.85;3.08;;;2.20;99.90;;;;;;5014250;28;20046;-67
2022/01/31 02:01:10;;;;;;;0.10;0.10;;;2.20;99.90;;;;;;5014524;28;20065;-67
2022/01/31 02:03:38;;;;;;;0.10;0.10;;;2.20;99.90;;;;;;5029347;28;20666;-67
2022/01/31 02:06:06;;;;;;;0.57;0.57;;;2.20;99.90;;;;;;5029557;28;20034;-67
2022/01/31 02:08:40;;;;;;;0.10;0.10;;;2.20;99.90;;;;;;5029487;28;20030;-67
2022/01/31 02:11:12;;;;;;;9.75;3.67;;;2.20;99.90;;;;;;5013451;28;20038;-67
2022/01/31 02:13:39;;;;;;;0.28;0.28;;;2.20;99.90;;;;;;5029473;28;20065;-68
2022/01/31 02:16:07;;;;;;;3.20;2.15;;;2.30;99.90;;;;;;5014433;28;20075;-67
2022/01/31 02:18:33;;;;;;;0.10;0.10;;;2.30;99.90;;;;;;5029086;28;20105;-68
2022/01/31 02:21:00;;;;;;;0.10;0.10;;;2.40;99.90;;;;;;5014530;28;20056;-67
2022/01/31 02:23:27;;;;;;;0.10;0.10;;;2.50;99.90;;;;;;5014140;28;20045;-68
2022/01/31 02:26:05;;;;;;;0.10;0.10;;;2.60;99.90;;;;;;5014126;28;20080;-67
2022/01/31 02:28:34;;;;;;;0.20;0.20;;;2.80;99.90;;;;;;5014100;28;20108;-67
2022/01/31 02:31:01;;;;;;;0.00;0.00;;;2.90;99.90;;;;;;5014231;28;20034;-68
2022/01/31 02:33:28;;;;;;;0.25;0.25;;;3.00;99.90;;;;;;5012146;28;20465;-67
2022/01/31 02:35:57;;;;;;;0.35;0.35;;;3.10;99.90;;;;;;5013862;28;20391;-67
2022/01/31 02:38:24;;;;;;;0.10;0.10;;;3.10;99.90;;;;;;5013830;28;20026;-67
2022/01/31 02:40:50;;;;;;;0.00;0.00;;;3.30;99.90;;;;;;5013896;28;20037;-68
2022/01/31 02:43:34;;;;;;;0.00;0.00;;;3.30;99.90;;;;;;5013841;28;20045;-67
2022/01/31 02:46:01;;;;;;;0.08;0.08;;;3.20;99.90;;;;;;5013576;28;20080;-68
2022/01/31 02:48:30;;;;;;;0.10;0.10;;;3.30;99.90;;;;;;5012834;28;20048;-68
2022/01/31 02:50:56;;;;;;;0.10;0.10;;;3.30;99.90;;;;;;5013554;28;20034;-67
2022/01/31 02:55:49;;;;;;;0.10;0.10;;;3.20;99.90;;;;;;5013232;28;20034;-67
2022/01/31 02:58:16;;;;;;;0.10;0.10;;;3.00;99.90;;;;;;5012165;28;20126;-68
2022/01/31 03:00:42;;;;;;;0.10;0.10;;;3.10;99.90;;;;;;5013302;28;20041;-68
2022/01/31 03:03:08;;;;;;;0.10;0.10;;;3.10;99.90;;;;;;5013244;28;20045;-68
2022/01/31 03:05:34;;;;;;;1.20;1.10;;;3.20;99.90;;;;;;5013289;28;20034;-67
2022/01/31 03:08:01;;;;;;;0.10;0.10;;;3.20;99.90;;;;;;5013115;28;20029;-67
2022/01/31 03:10:27;;;;;;;0.10;0.10;;;3.30;99.90;;;;;;5012914;28;20038;-67
2022/01/31 03:12:53;;;;;;;1.55;1.45;;;3.40;99.90;;;;;;5013297;28;20038;-68
2022/01/31 03:15:19;;;;;;;0.05;0.05;;;3.50;99.90;;;;;;5013165;28;20103;-68
2022/01/31 03:17:49;;;;;;;0.17;0.17;;;3.60;99.90;;;;;;5013345;28;20033;-68
2022/01/31 03:20:21;;;;;;;0.13;0.13;;;3.60;99.90;;;;;;5027752;28;20029;-68
2022/01/31 03:22:48;;;;;;;0.75;0.45;;;3.70;99.90;;;;;;5012979;28;20034;-67
2022/01/31 03:25:15;;;;;;;0.10;0.10;;;3.70;99.90;;;;;;5012847;28;20061;-67
2022/01/31 03:27:42;;;;;;;0.20;0.20;;;3.70;99.90;;;;;;5011549;28;20399;-67
2022/01/31 03:30:16;;;;;;;0.10;0.10;;;3.60;99.90;;;;;;5028099;28;20037;-67
2022/01/31 03:32:42;;;;;;;0.10;0.10;;;3.70;99.90;;;;;;5012668;28;20406;-67
2022/01/31 03:35:09;;;;;;;0.10;0.10;;;3.60;99.90;;;;;;5012898;28;20038;-67
2022/01/31 03:37:35;;;;;;;0.10;0.10;;;3.60;99.90;;;;;;5012855;28;20034;-67
2022/01/31 03:40:03;;;;;;;0.00;0.00;;;3.60;99.90;;;;;;5013008;28;20383;-67
2022/01/31 03:42:29;;;;;;;0.55;0.40;;;3.70;99.90;;;;;;5012289;28;20438;-67
2022/01/31 03:44:55;;;;;;;0.03;0.03;;;3.70;99.90;;;;;;5012905;28;20026;-67
2022/01/31 03:47:21;;;;;;;0.57;0.57;;;3.70;99.90;;;;;;5012691;28;20069;-68
2022/01/31 03:49:48;;;;;;;0.10;0.10;;;3.70;99.90;;;;;;5012429;28;20026;-67
2022/01/31 03:52:14;;;;;;;0.10;0.10;;;3.80;99.90;;;;;;5011172;28;20710;-67
2022/01/31 03:54:40;;;;;;;0.75;0.75;;;3.90;99.90;;;;;;5012289;28;20034;-67
2022/01/31 03:57:06;;;;;;;0.00;0.00;;;3.90;99.90;;;;;;5012591;28;20037;-67
2022/01/31 03:59:32;;;;;;;0.17;0.17;;;4.00;99.90;;;;;;5012141;28;20042;-67
2022/01/31 04:01:58;;;;;;;0.08;0.08;;;4.00;99.90;;;;;;5012314;28;20479;-67
2022/01/31 04:04:24;;;;;;;1.05;1.02;;;4.00;99.90;;;;;;5012173;28;20545;-67
2022/01/31 04:06:49;;;;;;;1.85;1.75;;;4.00;99.90;;;;;;5012438;28;20034;-67
2022/01/31 04:09:15;;;;;;;0.10;0.10;;;4.10;99.90;;;;;;5027368;28;20042;-66
2022/01/31 04:11:43;;;;;;;0.80;0.80;;;4.10;99.90;;;;;;5012130;28;20025;-67
2022/01/31 04:14:09;;;;;;;0.98;0.98;;;4.10;99.90;;;;;;5012375;28;20038;-67
2022/01/31 04:16:35;;;;;;;0.10;0.10;;;4.10;99.90;;;;;;5012207;28;20034;-67
2022/01/31 04:19:01;;;;;;;0.10;0.10;;;4.10;99.90;;;;;;5012058;28;20391;-68
2022/01/31 04:21:27;;;;;;;0.20;0.20;;;4.10;99.90;;;;;;5010425;28;20026;-67
2022/01/31 04:23:53;;;;;;;0.10;0.10;;;4.20;99.90;;;;;;5027293;28;20033;-67
2022/01/31 04:26:19;;;;;;;0.10;0.10;;;4.20;99.90;;;;;;5010918;28;20042;-68
2022/01/31 04:28:49;;;;;;;0.10;0.10;;;4.20;99.90;;;;;;5011913;28;20034;-66
2022/01/31 04:33:51;;;;;;;0.10;0.10;;;4.30;99.90;;;;;;5011726;28;20046;-67
2022/01/31 04:36:18;;;;;;;0.40;0.40;;;4.20;99.90;;;;;;5011979;28;20165;-67
2022/01/31 04:38:47;;;;;;;0.10;0.10;;;4.20;99.90;;;;;;5011657;28;20678;-67
2022/01/31 04:41:13;;;;;;;0.10;0.10;;;4.10;99.90;;;;;;5026812;28;20057;-67
2022/01/31 04:43:40;;;;;;;0.10;0.10;;;4.10;99.90;;;;;;5011701;28;20539;-67
2022/01/31 04:46:08;;;;;;;0.43;0.43;;;4.20;99.90;;;;;;5026883;28;20037;-67
2022/01/31 04:48:34;;;;;;;0.10;0.10;;;4.20;99.90;;;;;;5011533;28;20057;-67
2022/01/31 04:51:00;;;;;;;0.20;0.20;;;4.20;99.90;;;;;;5047808;28;20083;-66
2022/01/31 04:53:27;;;;;;;0.10;0.10;;;4.20;99.90;;;;;;5049758;28;20037;-67
2022/01/31 04:55:53;;;;;;;0.10;0.10;;;4.20;99.90;;;;;;5059211;28;20061;-66
2022/01/31 04:58:22;;;;;;;0.30;0.30;;;4.30;99.90;;;;;;5030258;28;20087;-67
2022/01/31 05:00:49;;;;;;;0.10;0.10;;;4.20;99.90;;;;;;5030838;28;20075;-67
2022/01/31 05:03:18;;;;;;;0.10;0.10;;;4.30;99.90;;;;;;5046490;28;20411;-67
2022/01/31 05:05:45;;;;;;;0.22;0.22;;;4.30;99.90;;;;;;5043198;28;20402;-68
2022/01/31 05:08:11;;;;;;;1.58;1.48;;;4.30;99.90;;;;;;5029832;28;20493;-69
2022/01/31 05:10:43;;;;;;;0.10;0.10;;;4.30;99.90;;;;;;5047921;28;20069;-69
2022/01/31 05:13:11;;;;;;;25.45;1.95;;;4.30;99.90;;;;;;5033849;28;20026;-68
2022/01/31 05:15:36;;;;;;;0.10;0.10;;;4.30;99.90;;;;;;5034964;28;20041;-71
2022/01/31 05:18:02;;;;;;;0.10;0.10;;;4.30;99.90;;;;;;5050622;28;20096;-70
2022/01/31 05:20:31;;;;;;;0.00;0.00;;;4.40;99.90;;;;;;5035164;28;20048;-69
2022/01/31 05:22:57;;;;;;;0.10;0.10;;;4.40;99.90;;;;;;5035242;28;20036;-69
2022/01/31 05:25:25;;;;;;;0.03;0.03;;;4.40;99.90;;;;;;5033427;28;20029;-70
2022/01/31 05:27:51;;;;;;;0.10;0.10;;;4.30;99.90;;;;;;5033446;28;20045;-69
2022/01/31 05:30:23;;;;;;;0.00;0.00;;;4.20;99.90;;;;;;5035059;28;20045;-69
2022/01/31 05:32:49;;;;;;;;;;;4.20;99.90;;;;;;5035079;28;20057;-66
2022/01/31 05:35:15;;;;;;;0.40;0.40;;;4.20;99.90;;;;;;5033806;28;19913;-70
2022/01/31 05:37:42;;;;;;;0.10;0.10;;;4.20;99.90;;;;;;5034774;28;20037;-68
2022/01/31 05:40:09;;;;;;;0.08;0.08;;;4.40;99.90;;;;;;5034895;28;20195;-68
2022/01/31 05:42:35;;;;;;;0.03;0.03;;;4.70;99.90;;;;;;5033410;28;20489;-68
2022/01/31 05:45:02;;;;;;;0.10;0.10;;;4.80;99.90;;;;;;5050237;28;20112;-67
2022/01/31 05:47:27;;;;;;;0.10;0.10;;;4.80;99.90;;;;;;5050042;28;20030;-68
2022/01/31 05:49:53;;;;;;;0.10;0.10;;;4.80;99.90;;;;;;5050053;28;20549;-66
2022/01/31 05:52:19;;;;;;;0.00;0.00;;;4.80;99.90;;;;;;5034627;28;20033;-69
2022/01/31 05:54:45;;;;;;;0.35;0.35;;;4.70;99.90;;;;;;5049644;28;20048;-70
2022/01/31 05:57:11;;;;;;;0.10;0.10;;;4.80;99.90;;;;;;5034287;28;20395;-68
2022/01/31 05:59:41;;;;;;;0.10;0.10;;;4.70;99.90;;;;;;5034331;28;20037;-68
2022/01/31 06:02:09;;;;;;;0.10;0.10;;;4.70;99.90;;;;;;5034171;28;20033;-69
2022/01/31 06:04:35;;;;;;;0.10;0.10;;;4.70;99.90;;;;;;5034162;28;20033;-69
2022/01/31 06:07:02;;;;;;;0.57;0.57;;;4.60;99.90;;;;;;5034282;28;20030;-70
2022/01/31 06:09:31;;;;;;;0.10;0.10;;;4.60;99.90;;;;;;5049413;28;20025;-70
2022/01/31 06:12:03;;;;;;;0.30;0.30;;;4.60;99.90;;;;;;5034328;28;20037;-70
2022/01/31 06:14:31;;;;;;;0.10;0.10;;;4.60;99.90;;;;;;5033653;28;20026;-70
2022/01/31 06:16:57;;;;;;;0.57;0.57;;;4.60;99.90;;;;;;5034050;28;20037;-70
2022/01/31 06:19:23;;;;;;;0.32;0.32;;;4.60;99.90;;;;;;5033888;28;20497;-70
2022/01/31 06:21:49;;;;;;;0.10;0.10;;;4.50;99.90;;;;;;5048887;28;20033;-70
2022/01/31 06:24:21;;;;;;;0.10;0.10;;;4.60;99.90;;;;;;5032656;28;20034;-70
2022/01/31 06:26:46;;;;;;;;;;;4.60;99.90;;;;;;5034001;28;20049;-70
2022/01/31 06:29:12;;;;;;;0.30;0.30;;;4.60;99.90;;;;;;5034047;28;19920;-70
2022/01/31 06:31:38;;;;;;;2.92;1.75;;;4.60;99.90;;;;;;5033828;28;20516;-70
2022/01/31 06:34:04;;;;;;;1.38;0.55;;;4.70;99.90;;;;;;5033565;28;20048;-70
2022/01/31 06:36:31;;;;;;;0.00;0.00;;;4.60;99.90;;;;;;5033137;28;20053;-70
2022/01/31 06:38:57;;;;;;;0.03;0.03;;;4.70;99.90;;;;;;5033463;28;20038;-69
2022/01/31 06:41:23;;;;;;;0.10;0.10;;;4.70;99.90;;;;;;5032346;28;20079;-69
2022/01/31 06:43:51;;;;;;;0.65;0.65;;;4.70;99.90;;;;;;5048497;28;20427;-69
2022/01/31 06:46:18;;;;;;;0.10;0.10;;;4.80;99.90;;;;;;5048842;28;20053;-69
2022/01/31 06:48:44;;;;;;;0.00;0.00;;;4.90;99.90;;;;;;5048653;28;20504;-69
2022/01/31 06:51:09;;;;;;;0.93;0.52;;;4.80;99.90;;;;;;5031815;28;20061;-69
2022/01/31 06:53:35;;;;;;;0.08;0.05;;;4.90;99.90;;;;;;5048539;28;20386;-69
2022/01/31 06:56:02;;;;;;;0.10;0.10;;;4.90;99.90;;;;;;5048711;28;20458;-69
2022/01/31 06:58:28;;;;;;;0.10;0.10;;;4.90;99.90;;;;;;5032961;28;20047;-68
2022/01/31 07:00:54;;;;;;;0.10;0.10;;;4.90;99.90;;;;;;5033039;28;20029;-68
2022/01/31 07:03:21;;;;;;;0.00;0.00;;;5.00;99.90;;;;;;5033230;28;20467;-68
2022/01/31 07:05:47;;;;;;;0.10;0.10;;;5.00;99.90;;;;;;5032757;28;20521;-68
2022/01/31 07:08:15;;;;;;;0.00;0.00;;;5.00;99.90;;;;;;5033404;28;20044;-68
2022/01/31 07:10:41;;;;;;;0.00;0.00;;;5.00;99.90;;;;;;5033198;28;20029;-68
2022/01/31 07:13:12;;;;;;;0.10;0.10;;;5.00;99.90;;;;;;5033324;28;20120;-68
2022/01/31 07:15:39;;;;;;;0.10;0.10;;;4.90;99.90;;;;;;5047888;28;20079;-68
2022/01/31 07:18:05;;;;;;;0.00;0.00;;;5.00;99.90;;;;;;5031687;28;20067;-69
2022/01/31 07:20:40;;;;;;;0.93;0.90;;;5.00;99.90;;;;;;5032556;28;20037;-68
2022/01/31 07:23:23;;;;;;;0.10;0.10;;;5.00;99.90;;;;;;5032890;28;20453;-68
2022/01/31 07:25:48;;;;;;;0.10;0.10;;;5.00;99.90;;;;;;5032757;28;20041;-69
2022/01/31 07:28:18;;;;;;;0.10;0.10;;;5.00;99.90;;;;;;5032606;28;20055;-69
2022/01/31 07:30:50;;;;;;;5.88;1.00;;;5.00;99.90;;;;;;5032924;28;20379;-68
2022/01/31 07:33:22;;;;;;;0.00;0.00;;;5.00;99.90;;;;;;5031785;28;20045;-69
2022/01/31 07:35:50;;;;;;;0.00;0.00;;;5.00;99.90;;;;;;5047666;28;20490;-69
2022/01/31 07:38:17;;;;;;;0.10;0.10;;;5.00;99.90;;;;;;5032572;28;20034;-68
2022/01/31 07:40:44;;;;;;;0.03;0.03;;;5.00;99.90;;;;;;5032422;28;20030;-67
2022/01/31 07:43:10;;;;;;;0.00;0.00;;;5.00;99.90;;;;;;5032540;28;20163;-67
2022/01/31 07:45:36;;;;;;;0.10;0.10;;;5.10;99.90;;;;;;5032362;28;20100;-67
2022/01/31 07:48:02;;;;;;;0.10;0.10;;;4.90;99.90;;;;;;5032508;28;20113;-67
2022/01/31 07:50:31;;;;;;;0.10;0.10;;;5.00;99.90;;;;;;5032445;28;20030;-67
2022/01/31 07:52:56;;;;;;;0.10;0.10;;;4.90;99.90;;;;;;5047526;28;20037;-68
2022/01/31 07:55:22;;;;;;;0.08;0.08;;;5.00;99.90;;;;;;5032111;28;20043;-67
2022/01/31 07:57:48;;;;;;;0.10;0.10;;;5.10;99.90;;;;;;5047573;28;20029;-67
2022/01/31 08:00:15;;;;;;;0.00;0.00;;;5.00;99.90;;;;;;5030706;28;20391;-67
2022/01/31 08:02:44;;;;;;;0.40;0.40;;;5.00;99.90;;;;;;5030545;28;20455;-67
2022/01/31 08:05:11;;;;;;;0.00;0.00;;;5.00;99.90;;;;;;5032431;28;20046;-66
2022/01/31 08:07:37;;;;;;;0.10;0.10;;;5.00;99.90;;;;;;5031467;28;20076;-67
2022/01/31 08:10:05;;;;;;;0.10;0.10;;;5.00;99.90;;;;;;5032138;28;20041;-68
2022/01/31 08:12:34;;;;;;;0.10;0.10;;;5.10;99.90;;;;;;5047276;28;20029;-68
2022/01/31 08:15:06;;;;;;;0.10;0.10;;;5.10;99.90;;;;;;5047003;28;20029;-67
2022/01/31 08:17:32;;;;;;;0.10;0.10;;;5.20;99.90;;;;;;5031838;28;20068;-67
2022/01/31 08:19:58;;;;;;;0.00;0.00;;;5.40;99.90;;;;;;5031836;28;20068;-67
2022/01/31 08:22:24;;;;;;;0.10;0.10;;;5.40;99.90;;;;;;5046799;28;20518;-68
2022/01/31 08:24:50;;;;;;;0.10;0.10;;;5.50;99.90;;;;;;5031537;28;20035;-68
2022/01/31 08:27:16;;;;;;;0.00;0.00;;;5.50;99.90;;;;;;5031739;28;20065;-67
2022/01/31 08:29:41;;;;;;;0.10;0.10;;;5.70;99.90;;;;;;5031815;28;20121;-67
2022/01/31 08:32:23;;;;;;;0.00;0.00;;;5.60;99.90;;;;;;5031765;28;20053;-67
2022/01/31 08:37:33;;;;;;;0.10;0.10;;;5.50;99.90;;;;;;5044640;28;20038;-65
2022/01/31 08:40:03;;;;;;;0.00;0.00;;;5.50;99.90;;;;;;5031810;28;20028;-66
2022/01/31 08:42:28;;;;;;;0.00;0.00;;;5.50;99.90;;;;;;5031660;28;20033;-66
2022/01/31 08:44:54;;;;;;;0.10;0.10;;;5.60;99.90;;;;;;5031777;28;20466;-66
2022/01/31 08:47:20;;;;;;;0.10;0.10;;;5.50;99.90;;;;;;5035902;28;20029;-67
2022/01/31 08:49:46;;;;;;;0.10;0.10;;;5.50;99.90;;;;;;5035584;28;20540;-66
2022/01/31 08:52:15;;;;;;;0.10;0.10;;;5.50;99.90;;;;;;5034058;28;20039;-65
2022/01/31 08:54:41;;;;;;;2.30;1.55;;;5.50;99.90;;;;;;5035465;28;20034;-66
2022/01/31 08:57:15;;;;;;;0.10;0.10;;;5.50;99.90;;;;;;5035742;28;20033;-66
2022/01/31 08:59:44;;;;;;;0.10;0.10;;;5.50;99.90;;;;;;5049620;28;20029;-66
2022/01/31 09:02:14;;;;;;;0.10;0.10;;;5.70;99.90;;;;;;5035514;28;20112;-66
2022/01/31 09:04:50;;;;;;;0.10;0.10;;;5.70;99.90;;;;;;5034064;28;20087;-67
2022/01/31 09:07:22;;;;;;;0.00;0.00;;;5.70;99.90;;;;;;5049634;28;20033;-66
2022/01/31 09:09:53;;;;;;;1.95;1.40;;;5.80;99.90;;;;;;5050655;28;20040;-67
2022/01/31 09:12:22;;;;;;;0.00;0.00;;;5.70;99.90;;;;;;5034315;28;20079;-68
2022/01/31 09:14:51;;;;;;;0.10;0.10;;;5.70;99.90;;;;;;5034950;28;20046;-68
2022/01/31 09:17:17;;;;;;;0.00;0.00;;;5.70;99.90;;;;;;5034791;28;20050;-68
2022/01/31 09:19:43;;;;;;;0.00;0.00;;;5.80;99.90;;;;;;5035302;28;20030;-68
2022/01/31 09:22:09;;;;;;;0.05;0.05;;;5.80;99.90;;;;;;5034782;28;20474;-68
2022/01/31 09:24:38;;;;;;;0.10;0.10;;;5.90;99.90;;;;;;5035199;28;20091;-69
2022/01/31 09:27:08;;;;;;;1.65;1.50;;;5.90;99.90;;;;;;5035144;28;20166;-68
2022/01/31 09:29:38;;;;;;;0.10;0.10;;;5.90;99.90;;;;;;5035229;28;20122;-68
2022/01/31 09:32:05;;;;;;;0.05;0.05;;;5.90;99.90;;;;;;5034887;28;20452;-68
2022/01/31 09:34:32;;;;;;;0.25;0.25;;;6.00;99.90;;;;;;5034947;28;20036;-68
2022/01/31 09:36:59;;;;;;;0.10;0.10;;;6.00;99.90;;;;;;5034768;28;20112;-68
2022/01/31 09:39:25;;;;;;;0.00;0.00;;;6.00;99.90;;;;;;5034962;28;20033;-68
2022/01/31 09:41:55;;;;;;;0.00;0.00;;;6.00;99.90;;;;;;5034819;28;20021;-68
2022/01/31 09:47:06;;;;;;;0.20;0.20;;;6.10;99.90;;;;;;5034608;28;20057;-68
2022/01/31 09:49:32;;;;;;;0.00;0.00;;;6.10;99.90;;;;;;5034791;28;20474;-67
2022/01/31 09:51:58;;;;;;;0.08;0.08;;;6.20;99.90;;;;;;5034723;28;20048;-67
2022/01/31 09:54:27;;;;;;;0.10;0.10;;;6.10;99.90;;;;;;5034478;28;20029;-67
2022/01/31 09:56:53;;;;;;;0.00;0.00;;;6.30;99.90;;;;;;5032930;28;20052;-68
2022/01/31 09:59:19;;;;;;;0.15;0.15;;;6.30;99.90;;;;;;5049908;28;20032;-68
2022/01/31 10:01:54;;;;;;;0.00;0.00;;;6.30;99.90;;;;;;5034548;28;20033;-68
2022/01/31 10:04:29;;;;;;;0.00;0.00;;;6.50;99.90;;;;;;5034595;28;20033;-68
2022/01/31 10:06:57;;;;;;;0.10;0.10;;;6.50;99.90;;;;;;5034471;28;20025;-69
2022/01/31 10:09:30;;;;;;;0.00;0.00;;;6.50;99.90;;;;;;5034519;28;20052;-69
2022/01/31 10:12:10;;;;;;;0.00;0.00;;;6.50;99.90;;;;;;5034242;28;20032;-68
2022/01/31 10:17:30;;;;;;;0.00;0.00;;;6.60;99.90;;;;;;5034450;28;20037;-68
2022/01/31 10:20:09;;;;;;;0.10;0.10;;;6.70;99.90;;;;;;5033897;28;20390;-68
2022/01/31 10:22:42;;;;;;;0.10;0.10;;;6.60;99.90;;;;;;5033826;28;20037;-68
2022/01/31 10:25:13;;;;;;;0.00;0.00;;;6.60;99.90;;;;;;5034178;28;20033;-68
2022/01/31 10:27:49;;;;;;;0.10;0.10;;;6.70;99.90;;;;;;5034013;28;20032;-68
2022/01/31 10:30:26;;;;;;;0.00;0.00;;;6.70;99.90;;;;;;5033821;28;20041;-69
2022/01/31 10:32:55;;;;;;;0.10;0.10;;;6.70;99.90;;;;;;5033695;28;20041;-69
2022/01/31 10:35:24;;;;;;;0.08;0.08;;;6.70;99.90;;;;;;5049135;28;20099;-69
2022/01/31 10:38:02;;;;;;;0.00;0.00;;;6.70;99.90;;;;;;5033945;28;20034;-69
2022/01/31 10:50:36;;;;;;;0.20;0.20;;;6.70;99.90;;;;;;5033538;28;20037;-68
2022/01/31 10:54:29;;;;;;;0.63;0.63;;;6.80;99.90;;;;;;5033352;28;20031;-69
2022/01/31 10:57:14;;;;;;;0.63;0.63;;;6.90;99.90;;;;;;5047807;28;20071;-69
2022/01/31 10:59:44;;;;;;;0.00;0.00;;;6.90;99.90;;;;;;5033493;28;20029;-69
2022/01/31 11:02:23;;;;;;;0.00;0.00;;;6.90;99.90;;;;;;5048537;28;20022;-69
2022/01/31 11:04:52;;;;;;;0.10;0.10;;;6.90;99.90;;;;;;5033323;28;20034;-67
2022/01/31 11:07:24;;;;;;;0.20;0.20;;;6.90;99.90;;;;;;5032825;28;20425;-69
2022/01/31 11:09:52;;;;;;;0.00;0.00;;;6.90;99.90;;;;;;5032738;28;20030;-67
2022/01/31 11:12:22;;;;;;;0.10;0.10;;;7.10;99.90;;;;;;5033027;28;20033;-70
2022/01/31 11:14:48;;;;;;;0.00;0.00;;;7.10;99.90;;;;;;5033089;28;20116;-68
2022/01/31 11:17:17;;;;;;;0.03;0.03;;;7.10;99.90;;;;;;5032887;28;20124;-69
2022/01/31 11:19:55;;;;;;;0.00;0.00;;;7.20;99.90;;;;;;5032232;28;20034;-66
2022/01/31 11:22:29;;;;;;;0.00;0.00;;;7.10;99.90;;;;;;5027732;28;20034;-67
2022/01/31 11:25:03;;;;;;;0.03;0.03;;;7.10;99.90;;;;;;5028487;28;20033;-68
2022/01/31 11:27:31;;;;;;;0.00;0.00;;;7.20;99.90;;;;;;5013351;28;20489;-65
2022/01/31 11:29:58;;;;;;;0.00;0.00;;;7.20;99.90;;;;;;5013223;28;20513;-66
2022/01/31 11:32:28;;;;;;;0.10;0.10;;;7.20;99.90;;;;;;5028061;28;20510;-66
2022/01/31 11:34:55;;;;;;;0.10;0.10;;;7.20;99.90;;;;;;5030837;28;20033;-67
2022/01/31 11:37:25;;;;;;;0.00;0.00;;;7.10;99.90;;;;;;5019284;28;20021;-66
2022/01/31 11:40:09;;;;;;;0.00;0.00;;;7.20;99.90;;;;;;5027100;28;20030;-66
2022/01/31 11:42:36;;;;;;;0.10;0.10;;;7.20;99.90;;;;;;5027682;28;20030;-67
2022/01/31 11:45:18;;;;;;;0.00;0.00;;;7.20;99.90;;;;;;5011592;28;20054;-67
2022/01/31 11:47:49;;;;;;;14.55;1.30;;;7.10;99.90;;;;;;5012515;28;20156;-67
2022/01/31 11:50:18;;;;;;;0.10;0.10;;;7.20;99.90;;;;;;5012924;28;20057;-67
2022/01/31 11:53:00;;;;;;;0.08;0.08;;;7.30;99.90;;;;;;5011057;28;20137;-67
2022/01/31 11:55:38;;;;;;;0.00;0.00;;;7.30;99.90;;;;;;5012908;28;20034;-67
2022/01/31 11:58:15;;;;;;;0.00;0.00;;;7.30;99.90;;;;;;5012540;28;20034;-67
2022/01/31 12:00:43;;;;;;;0.10;0.08;;;7.40;99.90;;;;;;5021022;28;20041;-67
2022/01/31 12:03:15;;;;;;;0.00;0.00;;;7.40;99.90;;;;;;5044214;28;20477;-67
2022/01/31 12:05:43;;;;;;;0.10;0.10;;;7.30;99.90;;;;;;5050793;28;20029;-71
2022/01/31 12:08:17;;;;;;;0.00;0.00;;;7.50;99.90;;;;;;5052211;28;20416;-67
2022/01/31 12:11:13;;;;;;;0.00;0.00;;;7.50;99.90;;;;;;5050867;28;20068;-67
2022/01/31 12:13:45;;;;;;;0.00;0.00;;;7.40;99.90;;;;;;5050692;28;20033;-67
2022/01/31 12:16:41;;;;;;;0.00;0.00;;;7.20;99.90;;;;;;5051698;28;20036;-67
2022/01/31 12:22:05;;;;;;;0.00;0.00;;;7.20;99.90;;;;;;5050298;28;20033;-67
2022/01/31 12:24:37;;;;;;;0.00;0.00;;;7.20;99.90;;;;;;5050515;28;20036;-67
2022/01/31 12:27:18;;;;;;;0.00;0.00;;;7.20;99.90;;;;;;5051705;28;20071;-67
2022/01/31 12:29:57;;;;;;;0.00;0.00;;;7.20;99.90;;;;;;5052086;28;20132;-67
2022/01/31 12:32:25;;;;;;;0.10;0.10;;;7.30;99.90;;;;;;5051465;28;20128;-68
2022/01/31 12:34:55;;;;;;;0.10;0.10;;;7.20;99.90;;;;;;5051523;28;20083;-67
2022/01/31 12:37:35;;;;;;;0.43;0.28;;;7.20;99.90;;;;;;5033778;28;20122;-67
2022/01/31 12:40:17;;;;;;;0.00;0.00;;;7.10;99.90;;;;;;5051520;28;20037;-67
2022/01/31 12:45:26;;;;;;;0.10;0.10;;;7.00;99.90;;;;;;5042471;28;20026;-67
2022/01/31 12:48:19;;;;;;;0.10;0.10;;;6.80;99.90;;;;;;5031757;28;20414;-68
2022/01/31 12:50:53;;;;;;;0.00;0.00;;;6.70;99.90;;;;;;5030414;28;20548;-68
2022/01/31 12:53:39;;;;;;;0.10;0.10;;;6.70;99.90;;;;;;5031719;28;20071;-67
2022/01/31 12:56:24;;;;;;;0.10;0.10;;;6.70;99.90;;;;;;5044768;28;20036;-67
2022/01/31 12:59:14;;;;;;;0.00;0.00;;;6.70;99.90;;;;;;5031567;28;20092;-67
2022/01/31 13:01:49;;;;;;;0.00;0.00;;;6.70;99.90;;;;;;5031800;28;20037;-68
2022/01/31 13:04:23;;;;;;;0.10;0.10;;;6.80;99.90;;;;;;5030385;28;20033;-66
2022/01/31 13:07:01;;;;;;;0.00;0.00;;;6.80;99.90;;;;;;5031539;28;20356;-68
2022/01/31 13:09:39;;;;;;;0.00;0.00;;;6.80;99.90;;;;;;5030648;28;20033;-67
2022/01/31 13:12:15;;;;;;;0.10;0.10;;;6.80;99.90;;;;;;5046320;28;20036;-67
2022/01/31 13:14:45;;;;;;;0.10;0.10;;;6.80;99.90;;;;;;5030429;28;20040;-67
2022/01/31 13:17:21;;;;;;;0.00;0.00;;;6.80;99.90;;;;;;5031416;28;20034;-67
2022/01/31 13:19:52;;;;;;;0.10;0.10;;;6.80;99.90;;;;;;5031628;28;20041;-67
2022/01/31 13:22:31;;;;;;;1.98;1.35;;;6.90;99.90;;;;;;5030087;28;20459;-67
2022/01/31 13:25:00;;;;;;;0.00;0.00;;;6.90;99.90;;;;;;5029892;28;20600;-67
2022/01/31 13:27:34;;;;;;;0.15;0.15;;;7.00;99.90;;;;;;5031215;28;20043;-67
2022/01/31 13:30:02;;;;;;;0.10;0.10;;;7.00;99.90;;;;;;5031423;28;20044;-67
2022/01/31 13:32:34;;;;;;;0.00;0.00;;;7.00;99.90;;;;;;5049104;28;20057;-67
2022/01/31 13:35:20;;;;;;;0.10;0.10;;;7.10;99.90;;;;;;5033588;28;20033;-67
2022/01/31 13:38:07;;;;;;;0.57;0.57;;;7.10;99.90;;;;;;5035179;28;20034;-67